North Bingham, Pennsylvania
Current Conditions -  °F | °C
As of 6:56 PM on Monday 20 Oct 2014 (Local Time) from KELZ Reporting Station
Light Rain Light Rain  
Wind Chill: 51°   Ceiling: 7000
Heat Index: 51°   Visibility: 10mi
Dew Point: 38°   Wind: 8mph
Humidity: 61%   Direction: 190°S
Pressure: 29.87"   Gusts: NA
Location:  41.9875°N, 77.7619°W
Report Text: KELZ 202256Z AUTO 19007KT 10SM -RA OVC070 11/03 A2987 RMK AO2 RAB55 SLP124 P0000 T01060033
Loading
Personal Weather Stations






























Interactive Weather Map
Tropical Storm Tracking
New forecast layout! Learn more

10-Day Weather Forecast

Advertisements
Track Severe Weather on mobile